Time;durP1;ratioP1;P1;durP2;ratioP2;P2;SDS_P1;SDS_P2;PMS_P1;PMS_P2;Temp;Humidity;BMP_temperature;BMP_pressure;BME280_temperature;BME280_humidity;BME280_pressure;Samples;Min_cycle;Max_cycle;Signal;HPM_P1;HPM_P2
2024/01/11 00:00:25;;;;;;;25.67;13.40;;;-1.90;99.90;;;-2.37;77.66;101801.09;4833589;28;24474;-65
2024/01/11 00:02:47;;;;;;;27.27;14.65;;;-1.90;99.90;;;-2.35;77.67;101786.63;4833086;28;24512;-65
2024/01/11 00:05:10;;;;;;;28.10;14.40;;;-2.00;99.90;;;-2.41;77.56;101791.75;4833527;28;24976;-65
2024/01/11 00:07:32;;;;;;;28.25;13.50;;;-2.00;99.90;;;-2.37;77.07;101788.31;4823656;28;24448;-65
2024/01/11 00:09:54;;;;;;;27.70;14.23;;;-2.00;99.90;;;-2.39;76.78;101796.00;4831164;28;24555;-64
2024/01/11 00:12:16;;;;;;;32.35;14.70;;;-2.00;99.90;;;-2.38;77.79;101800.25;4817935;28;24444;-64
2024/01/11 00:14:38;;;;;;;30.20;15.48;;;-2.00;99.90;;;-2.39;77.51;101803.66;4827886;28;24504;-65
2024/01/11 00:17:00;;;;;;;28.30;13.48;;;-2.00;99.90;;;-2.43;78.47;101790.88;4821081;28;24844;-65
2024/01/11 00:19:22;;;;;;;29.70;14.80;;;-2.00;99.90;;;-2.48;78.54;101793.44;4801038;28;24436;-65
2024/01/11 00:21:44;;;;;;;28.13;13.38;;;-2.00;99.90;;;-2.55;79.12;101801.09;4837035;28;24431;-65
2024/01/11 00:24:06;;;;;;;26.83;13.35;;;-2.10;99.90;;;-2.57;78.06;101795.13;4823623;28;24424;-65
2024/01/11 00:26:28;;;;;;;26.80;13.10;;;-2.10;99.90;;;-2.52;78.28;101796.84;4811956;28;24535;-66
2024/01/11 00:28:50;;;;;;;30.90;14.20;;;-2.10;99.90;;;-2.55;79.46;101804.50;4820750;28;24441;-65
2024/01/11 00:31:13;;;;;;;30.90;15.43;;;-2.10;99.90;;;-2.59;78.76;101800.25;4832103;28;24555;-66
2024/01/11 00:33:35;;;;;;;27.20;13.50;;;-2.20;99.90;;;-2.62;78.73;101792.56;4831727;28;24519;-65
2024/01/11 00:35:58;;;;;;;29.20;15.73;;;-2.20;99.90;;;-2.56;78.85;101800.28;4828894;28;24477;-65
2024/01/11 00:38:20;;;;;;;29.02;15.68;;;-2.20;99.90;;;-2.51;78.93;101797.69;4811301;28;24523;-65
2024/01/11 00:40:42;;;;;;;28.83;14.25;;;-2.10;99.90;;;-2.54;78.96;101800.25;4829433;28;24539;-65
2024/01/11 00:43:04;;;;;;;30.85;14.23;;;-2.10;99.90;;;-2.53;78.90;101796.84;4822715;28;25029;-65
2024/01/11 00:45:26;;;;;;;30.38;14.10;;;-2.10;99.90;;;-2.52;78.52;101798.56;4832131;28;24531;-66
2024/01/11 00:47:48;;;;;;;27.63;13.10;;;-2.10;99.90;;;-2.58;79.03;101796.00;4831148;28;24439;-65
2024/01/11 00:50:10;;;;;;;28.70;14.43;;;-2.20;99.90;;;-2.61;79.32;101806.22;4823240;28;24541;-65
2024/01/11 00:52:32;;;;;;;30.30;14.55;;;-2.20;99.90;;;-2.52;79.25;101807.06;4801083;28;24429;-65
2024/01/11 00:54:54;;;;;;;26.70;12.10;;;-2.20;99.90;;;-2.53;78.83;101805.34;4815048;28;24565;-65
2024/01/11 00:57:16;;;;;;;31.65;14.48;;;-2.10;99.90;;;-2.49;78.50;101801.09;4828425;28;24987;-65
2024/01/11 00:59:41;;;;;;;26.48;13.32;;;-2.10;99.90;;;-2.52;79.09;101804.53;4811528;28;24421;-65
2024/01/11 01:02:03;;;;;;;25.80;12.02;;;-2.10;99.90;;;-2.51;78.27;101807.91;4810136;28;25058;-65
2024/01/11 01:04:25;;;;;;;27.60;14.32;;;-2.10;99.90;;;-2.48;78.26;101808.78;4827365;28;24451;-65
2024/01/11 01:06:47;;;;;;;28.63;13.73;;;-2.10;99.90;;;-2.51;78.73;101808.75;4829782;28;24523;-65
2024/01/11 01:09:09;;;;;;;27.20;12.85;;;-2.10;99.90;;;-2.50;78.67;101809.63;4813783;28;24989;-65
2024/01/11 01:11:31;;;;;;;26.95;13.70;;;-2.10;99.90;;;-2.47;79.26;101814.75;4830984;28;24513;-65
2024/01/11 01:13:53;;;;;;;26.85;13.57;;;-2.10;99.90;;;-2.48;78.52;101813.03;4802842;28;24543;-65
2024/01/11 01:16:17;;;;;;;30.25;14.23;;;-2.10;99.90;;;-2.53;79.04;101809.63;4822959;28;24440;-65
2024/01/11 01:18:39;;;;;;;29.35;14.40;;;-2.10;99.90;;;-2.51;78.88;101813.00;4814432;28;25001;-63
2024/01/11 01:21:01;;;;;;;27.15;13.93;;;-2.10;99.90;;;-2.52;79.04;101809.63;4818390;28;24429;-65
2024/01/11 01:23:23;;;;;;;29.27;15.80;;;-2.10;99.90;;;-2.52;78.72;101804.53;4817598;28;25043;-65
2024/01/11 01:25:45;;;;;;;30.55;14.48;;;-2.10;99.90;;;-2.56;78.15;101809.63;4830587;28;24444;-65
2024/01/11 01:28:07;;;;;;;31.13;15.60;;;-2.10;99.90;;;-2.59;78.35;101812.16;4835992;28;24487;-64
2024/01/11 01:30:31;;;;;;;29.13;14.52;;;-2.20;99.90;;;-2.60;79.21;101811.31;4826745;28;21625;-66
2024/01/11 01:32:53;;;;;;;28.48;14.30;;;-2.20;99.90;;;-2.62;79.27;101814.75;4819368;28;24560;-65
2024/01/11 01:35:16;;;;;;;32.28;16.77;;;-2.20;99.90;;;-2.59;79.20;101815.59;4825500;28;24450;-65
2024/01/11 01:37:38;;;;;;;30.75;16.48;;;-2.20;99.90;;;-2.58;78.89;101811.34;4817483;28;25329;-65
2024/01/11 01:40:00;;;;;;;33.83;16.33;;;-2.20;99.90;;;-2.68;79.99;101817.28;4823478;28;24447;-65
2024/01/11 01:42:22;;;;;;;31.10;16.30;;;-2.20;99.90;;;-2.66;80.04;101813.88;4828775;28;24492;-65
2024/01/11 01:44:44;;;;;;;30.17;16.77;;;-2.20;99.90;;;-2.57;79.51;101819.00;4817492;28;24465;-62
2024/01/11 01:47:06;;;;;;;30.13;14.80;;;-2.20;99.90;;;-2.60;79.19;101823.25;4813440;28;24786;-65
2024/01/11 01:49:28;;;;;;;29.63;15.25;;;-2.20;99.90;;;-2.69;79.94;101823.25;4816847;28;24544;-65
2024/01/11 01:51:53;;;;;;;32.20;17.48;;;-2.20;99.90;;;-2.76;80.44;101829.19;4808444;28;24504;-65
2024/01/11 01:54:16;;;;;;;32.65;17.08;;;-2.30;99.90;;;-2.82;80.79;101821.53;4823772;28;24520;-64
2024/01/11 01:56:38;;;;;;;32.33;16.63;;;-2.30;99.90;;;-2.87;80.28;101833.41;4813992;28;24436;-65
2024/01/11 01:59:02;;;;;;;29.13;15.30;;;-2.40;99.90;;;-2.83;80.39;101830.06;4811093;28;24560;-64
2024/01/11 02:01:27;;;;;;;32.15;15.57;;;-2.40;99.90;;;-2.72;80.75;101833.44;4799410;28;24480;-65
2024/01/11 02:03:54;;;;;;;30.35;15.80;;;-2.30;99.90;;;-2.72;79.94;101841.09;4829024;28;24432;-65
2024/01/11 02:06:16;;;;;;;27.60;13.00;;;-2.30;99.90;;;-2.69;80.08;101841.13;4830243;28;24423;-63
2024/01/11 02:08:42;;;;;;;34.03;15.77;;;-2.30;99.90;;;-2.69;79.84;101839.44;4821706;28;24499;-65
2024/01/11 02:11:04;;;;;;;28.10;15.00;;;-2.30;99.90;;;-2.65;79.81;101840.28;4789237;28;24430;-65
2024/01/11 02:13:26;;;;;;;26.55;13.73;;;-2.30;99.90;;;-2.72;80.51;101838.56;4807809;28;24986;-65
2024/01/11 02:15:48;;;;;;;32.33;15.55;;;-2.30;99.90;;;-2.72;80.70;101838.56;4811191;28;24488;-65
2024/01/11 02:18:10;;;;;;;31.55;15.85;;;-2.30;99.90;;;-2.69;80.10;101833.47;4829195;28;25022;-65
2024/01/11 02:20:32;;;;;;;27.77;14.02;;;-2.30;99.90;;;-2.68;79.98;101833.44;4830076;28;24416;-65
2024/01/11 02:23:05;;;;;;;31.05;15.13;;;-2.30;99.90;;;-2.69;80.01;101830.91;4821372;28;20786;-65
2024/01/11 02:25:27;;;;;;;29.73;15.35;;;-2.30;99.90;;;-2.70;80.36;101829.19;4807499;28;24446;-65
2024/01/11 02:27:50;;;;;;;29.15;14.25;;;-2.30;99.90;;;-2.73;80.00;101827.50;4823068;28;24885;-66
2024/01/11 02:30:12;;;;;;;30.10;14.32;;;-2.30;99.90;;;-2.72;79.92;101823.22;4833313;28;24428;-65
2024/01/11 02:32:34;;;;;;;33.40;16.75;;;-2.30;99.90;;;-2.73;81.41;101831.75;4827226;28;24499;-65
2024/01/11 02:34:57;;;;;;;31.80;15.63;;;-2.30;99.90;;;-2.70;80.17;101830.03;4807794;28;24484;-65
2024/01/11 02:37:19;;;;;;;28.92;14.30;;;-2.30;99.90;;;-2.71;80.60;101830.91;4828495;28;24463;-65
2024/01/11 02:39:41;;;;;;;29.27;14.60;;;-2.30;99.90;;;-2.74;80.21;101833.44;4803638;28;24455;-65
2024/01/11 02:42:03;;;;;;;30.63;14.68;;;-2.30;99.90;;;-2.74;79.94;101830.03;4800784;28;24549;-64
2024/01/11 02:44:26;;;;;;;30.10;13.30;;;-2.30;99.90;;;-2.72;81.08;101825.78;4809369;28;24532;-63
2024/01/11 02:46:48;;;;;;;30.07;15.17;;;-2.30;99.90;;;-2.76;80.50;101831.75;4815067;28;24521;-63
2024/01/11 02:49:10;;;;;;;28.60;13.60;;;-2.30;99.90;;;-2.77;81.14;101841.09;4813874;28;24516;-65
2024/01/11 02:51:32;;;;;;;25.85;12.73;;;-2.40;99.90;;;-2.78;80.44;101839.41;4816739;28;24440;-64
2024/01/11 02:53:54;;;;;;;30.67;14.60;;;-2.40;99.90;;;-2.80;81.13;101838.56;4813344;28;24823;-65
2024/01/11 02:56:16;;;;;;;27.65;14.43;;;-2.40;99.90;;;-2.82;81.41;101839.41;4813911;28;25040;-66
2024/01/11 02:58:38;;;;;;;28.83;14.70;;;-2.40;99.90;;;-2.84;81.14;101839.41;4820998;28;24460;-65
2024/01/11 03:01:00;;;;;;;26.05;12.82;;;-2.40;99.90;;;-2.83;81.27;101838.53;4825724;28;24580;-65
2024/01/11 03:03:22;;;;;;;28.83;13.10;;;-2.40;99.90;;;-2.81;81.48;101841.94;4825610;28;24443;-64
2024/01/11 03:05:44;;;;;;;29.10;13.57;;;-2.40;99.90;;;-2.82;81.33;101840.25;4837252;28;24470;-65
2024/01/11 03:08:06;;;;;;;30.52;15.13;;;-2.40;99.90;;;-2.78;80.71;101848.78;4831380;28;24444;-65
2024/01/11 03:10:28;;;;;;;29.70;13.88;;;-2.40;99.90;;;-2.81;81.25;101836.00;4834809;28;24486;-65
2024/01/11 03:12:50;;;;;;;30.52;14.90;;;-2.40;99.90;;;-2.83;81.26;101832.59;4825588;28;24445;-64
2024/01/11 03:15:12;;;;;;;30.70;15.48;;;-2.40;99.90;;;-2.84;80.91;101818.97;4832677;28;24444;-64
2024/01/11 03:17:34;;;;;;;28.00;13.82;;;-2.40;99.90;;;-2.88;81.60;101816.41;4822746;28;24772;-64
2024/01/11 03:19:56;;;;;;;31.70;16.38;;;-2.40;99.90;;;-2.89;80.90;101820.66;4835382;28;24480;-64
2024/01/11 03:22:19;;;;;;;30.80;16.50;;;-2.40;99.90;;;-2.89;80.71;101814.69;4827108;28;24463;-66
2024/01/11 03:24:40;;;;;;;29.92;13.30;;;-2.40;99.90;;;-2.96;81.44;101818.94;4816479;28;24495;-66
2024/01/11 03:27:03;;;;;;;29.35;15.15;;;-2.50;99.90;;;-3.04;81.49;101823.19;4829541;28;24428;-66
2024/01/11 03:29:25;;;;;;;29.23;15.23;;;-2.60;99.90;;;-3.03;82.22;101824.91;4788419;28;24557;-66
2024/01/11 03:31:47;;;;;;;35.83;14.57;;;-2.60;99.90;;;-2.99;82.29;101818.94;4822623;28;24467;-66
2024/01/11 03:34:09;;;;;;;26.85;13.18;;;-2.60;99.90;;;-2.99;81.37;101807.88;4836653;28;24919;-65
2024/01/11 03:36:31;;;;;;;32.25;15.32;;;-2.60;99.90;;;-3.02;82.38;101802.78;4831235;28;24956;-65
2024/01/11 03:38:53;;;;;;;29.17;14.70;;;-2.60;99.90;;;-2.99;81.62;101811.28;4826507;28;24573;-65
2024/01/11 03:41:15;;;;;;;30.67;14.50;;;-2.60;99.90;;;-2.99;82.05;101812.97;4814560;28;24807;-65
2024/01/11 03:43:37;;;;;;;29.58;16.30;;;-2.60;99.90;;;-3.05;81.93;101818.06;4808422;28;24432;-66
2024/01/11 03:45:59;;;;;;;30.67;14.95;;;-2.60;99.90;;;-3.07;82.49;101815.53;4835103;28;24444;-66
2024/01/11 03:48:22;;;;;;;35.28;16.67;;;-2.60;99.90;;;-3.08;82.23;101807.84;4835754;28;24527;-67
2024/01/11 03:50:44;;;;;;;31.52;14.32;;;-2.60;99.90;;;-3.16;83.01;101812.94;4825806;28;24448;-66
2024/01/11 03:53:07;;;;;;;29.65;15.10;;;-2.70;99.90;;;-3.19;83.14;101806.13;4818162;28;24477;-66
2024/01/11 03:55:30;;;;;;;30.70;16.00;;;-2.70;99.90;;;-3.23;83.50;101812.06;4833401;28;24505;-65
2024/01/11 03:57:52;;;;;;;32.40;17.52;;;-2.80;99.90;;;-3.22;83.35;101816.34;4819535;28;24429;-65
2024/01/11 04:00:15;;;;;;;32.95;16.95;;;-2.70;99.90;;;-3.27;83.32;101806.94;4832544;28;24488;-65
2024/01/11 04:02:36;;;;;;;33.33;16.50;;;-2.80;99.90;;;-3.26;83.20;101811.22;4826605;28;24475;-66
2024/01/11 04:04:58;;;;;;;30.20;16.80;;;-2.80;99.90;;;-3.23;82.57;101814.63;4814744;28;25057;-62
2024/01/11 04:07:21;;;;;;;30.33;16.17;;;-2.80;99.90;;;-3.25;83.09;101818.03;4806639;28;24872;-64
2024/01/11 04:09:43;;;;;;;30.92;17.27;;;-2.80;99.90;;;-3.29;83.88;101809.50;4831309;28;24515;-65
2024/01/11 04:12:06;;;;;;;33.63;17.27;;;-2.80;99.90;;;-3.29;83.04;101813.75;4834315;28;24494;-65
2024/01/11 04:14:28;;;;;;;31.10;16.40;;;-2.80;99.90;;;-3.28;83.29;101810.38;4822164;28;24504;-65
2024/01/11 04:16:49;;;;;;;33.17;17.63;;;-2.90;99.90;;;-3.30;82.86;101810.34;4832252;28;24967;-65
2024/01/11 04:19:11;;;;;;;28.23;15.65;;;-2.80;99.90;;;-3.27;83.22;101806.94;4833787;28;24572;-65
2024/01/11 04:21:34;;;;;;;31.75;17.27;;;-2.80;99.90;;;-3.33;83.49;101812.91;4834102;28;24515;-65
2024/01/11 04:23:57;;;;;;;31.75;16.00;;;-2.90;99.90;;;-3.33;83.52;101810.34;4833392;28;25056;-65
2024/01/11 04:26:19;;;;;;;32.33;17.88;;;-2.90;99.90;;;-3.47;83.85;101811.97;4834619;28;24830;-65
2024/01/11 04:28:41;;;;;;;36.80;18.90;;;-3.00;99.90;;;-3.39;83.42;101812.88;4806319;28;25046;-65
2024/01/11 04:31:02;;;;;;;31.52;18.02;;;-2.90;99.90;;;-3.37;83.79;101816.28;4813011;28;24967;-65
2024/01/11 04:33:24;;;;;;;33.78;17.50;;;-2.90;99.90;;;-3.42;83.45;101820.53;4836318;28;24432;-66
2024/01/11 04:35:47;;;;;;;31.13;18.40;;;-2.90;99.90;;;-3.43;83.96;101821.34;4828382;28;25017;-65
2024/01/11 04:38:09;;;;;;;33.10;17.80;;;-3.00;99.90;;;-3.46;83.55;101826.47;4823886;28;24806;-66
2024/01/11 04:40:31;;;;;;;30.60;16.85;;;-3.00;99.90;;;-3.46;83.57;101833.25;4818639;28;24435;-65
2024/01/11 04:42:53;;;;;;;31.80;16.45;;;-3.00;99.90;;;-3.49;83.96;101839.19;4824674;28;24800;-65
2024/01/11 04:45:15;;;;;;;33.00;16.67;;;-3.00;99.90;;;-3.49;84.18;101840.91;4836868;28;24460;-65
2024/01/11 04:47:37;;;;;;;31.77;16.83;;;-3.00;99.90;;;-3.47;84.00;101841.78;4826716;28;24475;-64
2024/01/11 04:49:59;;;;;;;31.60;16.23;;;-3.00;99.90;;;-3.49;84.19;101838.34;4812311;28;24448;-65
2024/01/11 04:52:22;;;;;;;30.42;16.25;;;-3.10;99.90;;;-3.51;84.34;101833.22;4825864;28;24999;-65
2024/01/11 04:54:44;;;;;;;31.02;16.25;;;-3.10;99.90;;;-3.53;83.97;101836.63;4834686;28;24452;-65
2024/01/11 04:57:06;;;;;;;33.28;18.17;;;-3.10;99.90;;;-3.55;84.24;101839.16;4832882;28;24988;-65
2024/01/11 04:59:27;;;;;;;30.50;16.40;;;-3.10;99.90;;;-3.56;84.95;101832.38;4817544;28;24479;-65
2024/01/11 05:01:50;;;;;;;33.25;18.17;;;-3.10;99.90;;;-3.51;84.68;101838.34;4821578;28;24531;-65
2024/01/11 05:04:13;;;;;;;32.10;16.73;;;-3.10;99.90;;;-3.53;84.41;101831.50;4830702;28;24549;-65
2024/01/11 05:06:35;;;;;;;31.70;17.80;;;-3.10;99.90;;;-3.59;84.20;101834.91;4829807;28;24476;-65
2024/01/11 05:08:57;;;;;;;31.42;17.55;;;-3.10;99.90;;;-3.64;85.29;101839.13;4827937;28;25004;-66
2024/01/11 05:11:21;;;;;;;33.03;17.83;;;-3.10;99.90;;;-3.63;84.90;101840.84;4832915;28;24531;-65
2024/01/11 05:13:45;;;;;;;30.20;16.92;;;-3.10;99.90;;;-3.53;84.47;101849.38;4804958;28;24516;-65
2024/01/11 05:16:08;;;;;;;31.98;17.25;;;-3.10;99.90;;;-3.55;84.97;101843.41;4820326;28;24527;-65
2024/01/11 05:18:30;;;;;;;32.45;18.48;;;-3.10;99.90;;;-3.61;84.75;101846.78;4807975;28;24492;-66
2024/01/11 05:20:55;;;;;;;34.13;16.75;;;-3.10;99.90;;;-3.59;84.41;101834.91;4833459;28;24432;-65
2024/01/11 05:23:17;;;;;;;32.22;16.38;;;-3.10;99.90;;;-3.62;84.88;101834.03;4817332;28;24441;-66
2024/01/11 05:25:39;;;;;;;32.13;15.73;;;-3.20;99.90;;;-3.59;85.11;101834.91;4827445;28;24512;-65
2024/01/11 05:28:03;;;;;;;33.38;16.30;;;-3.20;99.90;;;-3.65;85.29;101839.13;4827516;28;24951;-65
2024/01/11 05:30:25;;;;;;;31.65;17.40;;;-3.20;99.90;;;-3.65;85.24;101837.44;4809312;28;24515;-64
2024/01/11 05:32:51;;;;;;;33.60;17.63;;;-3.20;99.90;;;-3.69;85.55;101842.50;4812208;28;24441;-65
2024/01/11 05:35:13;;;;;;;32.85;17.00;;;-3.20;99.90;;;-3.67;85.88;101851.88;4819261;28;24540;-64
2024/01/11 05:37:36;;;;;;;32.15;17.30;;;-3.20;99.90;;;-3.66;85.07;101853.56;4827552;28;24954;-65
2024/01/11 05:39:58;;;;;;;32.45;17.00;;;-3.20;99.90;;;-3.72;85.64;101848.44;4834508;28;25000;-65
2024/01/11 05:42:19;;;;;;;32.63;17.73;;;-3.20;99.90;;;-3.63;85.12;101861.25;4833875;28;24420;-65
2024/01/11 05:44:41;;;;;;;32.55;17.85;;;-3.20;99.90;;;-3.62;84.72;101865.47;4811611;28;24479;-66
2024/01/11 05:47:04;;;;;;;34.10;17.80;;;-3.20;99.90;;;-3.61;85.14;101862.09;4834612;28;24437;-65
2024/01/11 05:49:26;;;;;;;32.83;18.38;;;-3.20;99.90;;;-3.64;85.24;101862.06;4830947;28;24440;-65
2024/01/11 05:51:48;;;;;;;33.22;18.30;;;-3.20;99.90;;;-3.63;84.91;101860.38;4813078;28;24445;-63
2024/01/11 05:54:09;;;;;;;33.00;18.05;;;-3.20;99.90;;;-3.62;85.12;101859.56;4828208;28;24529;-65
2024/01/11 05:56:31;;;;;;;35.85;17.92;;;-3.20;99.90;;;-3.64;84.52;101856.97;4829855;28;24432;-65
2024/01/11 05:58:53;;;;;;;32.75;19.45;;;-3.10;99.90;;;-3.71;85.28;101865.47;4829750;28;24452;-65
2024/01/11 06:01:16;;;;;;;31.83;15.13;;;-3.20;99.90;;;-3.70;85.02;101872.25;4823099;28;24444;-65
2024/01/11 06:03:39;;;;;;;29.10;13.13;;;-3.20;99.90;;;-3.66;85.28;101879.06;4816839;28;24436;-65
2024/01/11 06:06:03;;;;;;;30.67;15.18;;;-3.20;99.90;;;-3.62;85.43;101877.41;4830328;28;24437;-65
2024/01/11 06:08:25;;;;;;;32.53;15.80;;;-3.20;99.90;;;-3.61;85.16;101869.75;4834486;28;24435;-66
2024/01/11 06:10:47;;;;;;;30.80;13.65;;;-3.20;99.90;;;-3.57;84.57;101868.06;4829539;28;24437;-66
2024/01/11 06:13:09;;;;;;;34.45;17.40;;;-3.20;99.90;;;-3.57;84.64;101865.50;4814307;28;24514;-66
2024/01/11 06:15:32;;;;;;;33.28;16.98;;;-3.10;99.90;;;-3.60;84.38;101862.97;4811800;28;24446;-65
2024/01/11 06:17:54;;;;;;;31.67;16.60;;;-3.10;99.90;;;-3.68;85.16;101862.91;4812993;28;24444;-65
2024/01/11 06:20:16;;;;;;;31.95;15.38;;;-3.20;99.90;;;-3.65;84.80;101868.03;4834696;28;24447;-65
2024/01/11 06:22:39;;;;;;;31.35;16.80;;;-3.20;99.90;;;-3.62;84.51;101875.69;4825282;28;24432;-66
2024/01/11 06:25:05;;;;;;;26.52;14.27;;;-3.20;99.90;;;-3.62;84.72;101872.31;4811105;28;24433;-65
2024/01/11 06:27:27;;;;;;;29.98;16.60;;;-3.10;99.90;;;-3.65;84.46;101885.91;4825350;28;25232;-65
2024/01/11 06:29:49;;;;;;;35.97;19.15;;;-3.20;99.90;;;-3.63;84.61;101880.78;4826857;28;24452;-64
2024/01/11 06:32:11;;;;;;;32.75;16.50;;;-3.20;99.90;;;-3.60;84.43;101891.03;4819519;28;24424;-64
2024/01/11 06:34:35;;;;;;;34.35;18.70;;;-3.10;99.90;;;-3.64;84.75;101905.44;4835200;28;24432;-65
2024/01/11 06:36:57;;;;;;;31.15;15.38;;;-3.20;99.90;;;-3.60;84.02;101901.22;4799513;28;25076;-65
2024/01/11 06:39:22;;;;;;;30.65;16.23;;;-3.20;99.90;;;-3.67;84.39;101897.78;4814611;28;24801;-65
2024/01/11 06:41:44;;;;;;;34.38;17.75;;;-3.20;99.90;;;-3.66;84.02;101907.13;4829257;28;24479;-65
2024/01/11 06:44:06;;;;;;;33.42;17.10;;;-3.20;99.90;;;-3.68;84.03;101915.59;4811497;28;24866;-64
2024/01/11 06:46:28;;;;;;;37.55;19.70;;;-3.20;99.90;;;-3.69;83.74;101914.78;4821187;28;24421;-65
2024/01/11 06:48:49;;;;;;;32.83;17.20;;;-3.20;99.90;;;-3.76;84.81;101928.31;4837365;28;24440;-64
2024/01/11 06:51:15;;;;;;;34.70;16.95;;;-3.30;99.90;;;-3.78;84.81;101921.50;4812617;28;24442;-64
2024/01/11 06:53:37;;;;;;;33.45;18.63;;;-3.30;99.90;;;-3.80;84.58;101929.16;4795054;28;24468;-64
2024/01/11 06:55:59;;;;;;;35.30;18.98;;;-3.30;99.90;;;-3.77;84.46;101924.09;4828407;28;24421;-64
2024/01/11 06:58:22;;;;;;;37.50;19.67;;;-3.30;99.90;;;-3.88;84.63;101940.13;4827393;28;24443;-64
2024/01/11 07:00:44;;;;;;;35.38;18.25;;;-3.30;99.90;;;-3.89;85.54;101931.63;4816544;28;24571;-65
2024/01/11 07:03:06;;;;;;;33.28;16.27;;;-3.40;99.90;;;-3.92;85.06;101931.63;4830659;28;24473;-64
2024/01/11 07:05:29;;;;;;;34.72;17.67;;;-3.40;99.90;;;-3.88;85.26;101943.53;4816840;28;24459;-65
2024/01/11 07:07:51;;;;;;;33.70;18.38;;;-3.40;99.90;;;-3.86;84.91;101944.41;4834492;28;24471;-64
2024/01/11 07:10:13;;;;;;;33.95;18.63;;;-3.40;99.90;;;-3.93;85.50;101945.19;4821227;28;24528;-64
2024/01/11 07:12:37;;;;;;;36.60;19.90;;;-3.40;99.90;;;-3.95;84.77;101945.19;4824049;28;24475;-64
2024/01/11 07:15:03;;;;;;;33.55;19.60;;;-3.40;99.90;;;-3.86;84.72;101946.09;4817179;28;24444;-65
2024/01/11 07:17:25;;;;;;;36.10;19.20;;;-3.40;99.90;;;-3.87;84.90;101947.78;4817047;28;24427;-65
2024/01/11 07:19:47;;;;;;;34.38;18.90;;;-3.40;99.90;;;-3.83;84.10;101946.97;4803773;28;24458;-65
2024/01/11 07:22:09;;;;;;;34.47;18.00;;;-3.30;99.90;;;-3.87;84.30;101955.44;4813608;28;24958;-65
2024/01/11 07:24:37;;;;;;;34.97;18.80;;;-3.40;99.90;;;-3.83;83.95;101951.25;4815408;28;24851;-65
2024/01/11 07:26:59;;;;;;;36.22;17.77;;;-3.40;99.90;;;-3.86;84.32;101962.25;4830339;28;24467;-65
2024/01/11 07:29:21;;;;;;;35.20;17.60;;;-3.40;99.90;;;-3.83;83.91;101964.81;4830382;28;24430;-65
2024/01/11 07:31:43;;;;;;;35.23;17.87;;;-3.40;99.90;;;-3.81;84.25;101969.94;4832654;28;24506;-65
2024/01/11 07:34:05;;;;;;;36.47;18.13;;;-3.40;99.90;;;-3.80;83.63;101964.84;4804415;28;24457;-65
2024/01/11 07:36:27;;;;;;;35.00;17.88;;;-3.30;99.90;;;-3.75;83.49;101964.91;4831378;28;25105;-66
2024/01/11 07:38:49;;;;;;;34.35;19.42;;;-3.30;99.90;;;-3.64;83.30;101974.31;4828763;28;24449;-65
2024/01/11 07:41:11;;;;;;;39.60;18.45;;;-3.20;99.90;;;-3.63;83.31;101965.84;4824372;28;24456;-66
2024/01/11 07:43:35;;;;;;;36.17;19.70;;;-3.20;99.90;;;-3.59;82.55;101970.09;4828911;28;24487;-65
2024/01/11 07:46:13;;;;;;;38.13;20.95;;;-3.10;99.90;;;-3.61;83.08;101973.47;4833947;28;24857;-66
2024/01/11 07:48:35;;;;;;;36.22;19.33;;;-3.10;99.90;;;-3.57;82.50;101976.06;4832018;28;25041;-62
2024/01/11 07:50:59;;;;;;;40.50;20.25;;;-3.10;99.90;;;-3.59;82.21;101972.66;4801268;28;24544;-65
2024/01/11 07:53:21;;;;;;;39.22;21.17;;;-3.10;99.90;;;-3.61;82.92;101978.59;4826527;28;24433;-65
2024/01/11 07:55:47;;;;;;;41.30;23.13;;;-3.10;99.90;;;-3.58;82.82;101969.28;4833157;28;24986;-67
2024/01/11 07:58:11;;;;;;;37.08;18.83;;;-3.10;99.90;;;-3.58;82.17;101970.97;4827202;28;24446;-65
2024/01/11 08:00:33;;;;;;;35.45;19.33;;;-3.20;99.90;;;-3.50;82.38;101982.94;4811348;28;24527;-65
2024/01/11 08:02:55;;;;;;;38.20;20.50;;;-3.10;99.90;;;-3.28;81.83;101971.16;4833002;28;24448;-65
2024/01/11 08:05:17;;;;;;;35.40;18.80;;;-2.90;99.90;;;-2.93;80.12;101973.88;4816673;28;24827;-63
2024/01/11 08:07:41;;;;;;;35.08;18.02;;;-2.70;99.90;;;-2.70;78.59;101975.66;4827371;28;24524;-65
2024/01/11 08:10:04;;;;;;;35.05;17.25;;;-2.40;99.90;;;-2.76;78.33;101967.13;4826359;28;24488;-64
2024/01/11 08:12:26;;;;;;;34.33;17.30;;;-2.40;99.90;;;-2.72;78.90;101976.50;4829957;28;24507;-65
2024/01/11 08:14:48;;;;;;;34.65;18.63;;;-2.40;99.90;;;-2.54;78.19;101981.69;4809933;28;24519;-63
2024/01/11 08:17:11;;;;;;;30.70;15.40;;;-2.30;99.90;;;-2.03;76.61;101970.69;4824590;28;24846;-64
2024/01/11 08:19:32;;;;;;;31.38;16.08;;;-1.90;99.90;;;-1.38;74.67;101979.19;4811800;28;24453;-65
2024/01/11 08:21:56;;;;;;;33.10;18.13;;;-1.40;99.90;;;-0.98;72.21;101985.91;4829918;28;24437;-65
2024/01/11 08:24:18;;;;;;;31.83;15.60;;;-1.00;99.90;;;-0.34;70.12;101989.03;4827495;28;24475;-65
2024/01/11 08:26:40;;;;;;;33.83;16.77;;;-0.40;99.90;;;0.55;67.55;101995.22;4811198;28;25033;-65
2024/01/11 08:29:04;;;;;;;33.45;17.80;;;0.20;99.90;;;1.01;64.50;101999.00;4831055;28;24421;-65
2024/01/11 08:31:26;;;;;;;35.23;18.90;;;0.90;99.90;;;2.16;60.95;102000.00;4807210;28;24457;-65
2024/01/11 08:33:50;;;;;;;38.05;18.15;;;1.70;99.90;;;2.85;57.82;101993.66;4833167;28;24425;-65
2024/01/11 08:36:13;;;;;;;37.55;19.20;;;2.50;99.90;;;3.78;56.25;101998.59;4810930;28;25004;-65
2024/01/11 08:38:35;;;;;;;37.13;20.00;;;3.30;99.90;;;4.33;53.04;101995.56;4807385;28;24996;-65
2024/01/11 08:40:59;;;;;;;36.60;18.65;;;4.00;99.90;;;5.26;51.97;102001.69;4802420;28;24926;-66
2024/01/11 08:43:21;;;;;;;39.50;18.73;;;4.60;99.90;;;5.97;49.70;102010.78;4813849;28;24459;-64
2024/01/11 08:45:43;;;;;;;41.37;19.40;;;5.20;99.90;;;7.07;47.41;101988.00;4830027;28;24523;-66
2024/01/11 08:48:06;;;;;;;39.85;20.02;;;6.10;99.90;;;7.89;44.22;102006.56;4833613;28;24463;-65
2024/01/11 08:50:28;;;;;;;42.10;20.73;;;7.00;98.50;;;8.51;42.94;102007.50;4830567;28;24535;-65
2024/01/11 08:52:51;;;;;;;40.97;21.10;;;7.60;96.50;;;9.36;41.39;101999.41;4820096;28;24537;-65
2024/01/11 08:55:13;;;;;;;40.95;21.52;;;8.30;94.80;;;10.66;39.19;102000.09;4834187;28;25330;-65
2024/01/11 08:57:35;;;;;;;41.67;20.90;;;9.30;92.60;;;11.63;36.64;101998.38;4818252;28;24528;-66
2024/01/11 08:59:57;;;;;;;41.97;21.45;;;10.30;90.10;;;12.50;35.67;101991.72;4821005;28;24453;-65
2024/01/11 09:02:19;;;;;;;43.70;22.92;;;11.10;84.60;;;13.16;34.07;101991.16;4836522;28;24802;-66
2024/01/11 09:04:44;;;;;;;43.20;23.38;;;11.80;79.70;;;13.07;33.18;101988.28;4817442;28;24697;-66
2024/01/11 09:07:06;;;;;;;41.92;23.38;;;12.00;75.10;;;13.06;33.47;101992.66;4818009;28;24529;-65
2024/01/11 09:09:28;;;;;;;43.95;23.02;;;12.00;73.50;;;12.90;33.44;101988.41;4830973;28;24420;-66
2024/01/11 09:11:51;;;;;;;44.33;23.10;;;11.90;72.70;;;13.20;33.18;101983.97;4821542;28;24440;-65
2024/01/11 09:14:13;;;;;;;42.33;24.00;;;12.00;71.80;;;13.70;32.36;101988.66;4815117;28;24527;-65
2024/01/11 09:16:36;;;;;;;42.67;21.83;;;12.40;70.60;;;12.74;32.79;101992.88;4820406;28;24789;-66
2024/01/11 09:19:00;;;;;;;43.13;23.00;;;11.90;69.40;;;10.17;36.61;101978.22;4811455;28;24456;-65
2024/01/11 09:21:22;;;;;;;44.50;22.05;;;10.20;70.80;;;8.09;40.29;101977.19;4810741;28;24455;-65
2024/01/11 09:23:44;;;;;;;41.13;22.50;;;8.50;74.10;;;5.98;43.85;101975.38;4815360;28;25182;-65
2024/01/11 09:26:06;;;;;;;43.90;22.58;;;6.80;77.90;;;4.54;48.28;101976.91;4836030;28;24428;-65
2024/01/11 09:28:28;;;;;;;45.60;22.17;;;5.30;82.90;;;3.44;51.35;101987.31;4835091;28;24535;-65
2024/01/11 09:30:50;;;;;;;44.38;21.35;;;4.10;87.50;;;2.53;54.46;101982.22;4834221;28;24458;-61
2024/01/11 09:33:12;;;;;;;43.72;19.70;;;3.20;91.50;;;1.72;56.97;101994.66;4835653;28;20773;-65
2024/01/11 09:35:34;;;;;;;40.47;20.58;;;2.30;94.30;;;0.92;60.88;101988.81;4835635;28;24523;-66
2024/01/11 09:37:56;;;;;;;42.30;20.48;;;1.60;97.50;;;0.66;61.63;101985.69;4809139;28;24540;-65
2024/01/11 09:40:18;;;;;;;40.05;19.52;;;1.10;99.90;;;0.34;63.76;101992.84;4835313;28;25024;-65